sensor_id;sensor_type;location;lat;lon;timestamp;temperature;humidity
21518;DHT22;61765;45.794;24.150;2024-02-28T00:01:20;16.00;59.60
21518;DHT22;61765;45.794;24.150;2024-02-28T00:09:28;15.90;59.60
21518;DHT22;61765;45.794;24.150;2024-02-28T00:17:34;15.90;59.60
21518;DHT22;61765;45.794;24.150;2024-02-28T00:25:43;16.00;59.50
21518;DHT22;61765;45.794;24.150;2024-02-28T00:33:48;15.90;59.60
21518;DHT22;61765;45.794;24.150;2024-02-28T00:41:57;15.70;60.10
21518;DHT22;61765;45.794;24.150;2024-02-28T00:50:03;15.50;62.80
21518;DHT22;61765;45.794;24.150;2024-02-28T00:58:11;15.40;63.00
21518;DHT22;61765;45.794;24.150;2024-02-28T01:06:17;15.30;63.50
21518;DHT22;61765;45.794;24.150;2024-02-28T01:14:26;15.10;64.70
21518;DHT22;61765;45.794;24.150;2024-02-28T01:22:31;15.00;65.40
21518;DHT22;61765;45.794;24.150;2024-02-28T01:30:40;14.90;65.30
21518;DHT22;61765;45.794;24.150;2024-02-28T01:38:46;14.80;66.10
21518;DHT22;61765;45.794;24.150;2024-02-28T01:46:54;14.90;65.80
21518;DHT22;61765;45.794;24.150;2024-02-28T01:55:01;14.70;66.40
21518;DHT22;61765;45.794;24.150;2024-02-28T02:03:11;14.80;66.20
21518;DHT22;61765;45.794;24.150;2024-02-28T02:11:18;14.50;67.30
21518;DHT22;61765;45.794;24.150;2024-02-28T02:19:27;14.60;67.40
21518;DHT22;61765;45.794;24.150;2024-02-28T02:27:35;14.60;67.60
21518;DHT22;61765;45.794;24.150;2024-02-28T02:35:41;14.70;68.00
21518;DHT22;61765;45.794;24.150;2024-02-28T02:43:49;14.40;67.80
21518;DHT22;61765;45.794;24.150;2024-02-28T02:51:55;14.30;68.20
21518;DHT22;61765;45.794;24.150;2024-02-28T03:00:04;14.30;68.60
21518;DHT22;61765;45.794;24.150;2024-02-28T03:08:13;14.30;68.20
21518;DHT22;61765;45.794;24.150;2024-02-28T03:16:22;14.50;67.30
21518;DHT22;61765;45.794;24.150;2024-02-28T03:24:28;14.30;67.20
21518;DHT22;61765;45.794;24.150;2024-02-28T03:32:37;14.40;66.20
21518;DHT22;61765;45.794;24.150;2024-02-28T03:40:42;14.50;63.10
21518;DHT22;61765;45.794;24.150;2024-02-28T03:48:51;14.00;64.60
21518;DHT22;61765;45.794;24.150;2024-02-28T03:56:56;13.80;65.80
21518;DHT22;61765;45.794;24.150;2024-02-28T04:05:06;13.70;65.70
21518;DHT22;61765;45.794;24.150;2024-02-28T04:13:11;13.80;65.10
21518;DHT22;61765;45.794;24.150;2024-02-28T04:21:20;12.90;67.10
21518;DHT22;61765;45.794;24.150;2024-02-28T04:29:26;12.90;67.30
21518;DHT22;61765;45.794;24.150;2024-02-28T04:37:34;13.20;66.50
21518;DHT22;61765;45.794;24.150;2024-02-28T04:45:40;12.80;68.00
21518;DHT22;61765;45.794;24.150;2024-02-28T04:53:51;13.00;68.10
21518;DHT22;61765;45.794;24.150;2024-02-28T05:01:56;12.60;68.10
21518;DHT22;61765;45.794;24.150;2024-02-28T05:10:06;12.80;68.60
21518;DHT22;61765;45.794;24.150;2024-02-28T05:18:12;12.80;68.80
21518;DHT22;61765;45.794;24.150;2024-02-28T05:26:21;12.70;69.00
21518;DHT22;61765;45.794;24.150;2024-02-28T05:34:27;12.80;68.70
21518;DHT22;61765;45.794;24.150;2024-02-28T05:42:36;12.40;69.10
21518;DHT22;61765;45.794;24.150;2024-02-28T05:50:42;12.40;70.20
21518;DHT22;61765;45.794;24.150;2024-02-28T05:58:50;12.50;70.00
21518;DHT22;61765;45.794;24.150;2024-02-28T06:06:56;12.80;69.10
21518;DHT22;61765;45.794;24.150;2024-02-28T06:15:05;12.90;68.20
21518;DHT22;61765;45.794;24.150;2024-02-28T06:23:11;13.20;68.30
21518;DHT22;61765;45.794;24.150;2024-02-28T06:31:32;12.90;68.80
21518;DHT22;61765;45.794;24.150;2024-02-28T06:39:38;13.30;68.10
21518;DHT22;61765;45.794;24.150;2024-02-28T06:47:47;13.20;68.70
21518;DHT22;61765;45.794;24.150;2024-02-28T06:55:53;13.60;67.70
21518;DHT22;61765;45.794;24.150;2024-02-28T07:04:02;13.80;66.50
21518;DHT22;61765;45.794;24.150;2024-02-28T07:12:08;14.00;66.80
21518;DHT22;61765;45.794;24.150;2024-02-28T07:20:16;14.40;65.60
21518;DHT22;61765;45.794;24.150;2024-02-28T07:28:22;15.20;63.60
21518;DHT22;61765;45.794;24.150;2024-02-28T07:36:30;15.10;63.20
21518;DHT22;61765;45.794;24.150;2024-02-28T07:44:36;15.50;62.20
21518;DHT22;61765;45.794;24.150;2024-02-28T07:52:46;15.30;63.10
21518;DHT22;61765;45.794;24.150;2024-02-28T08:00:52;16.20;61.50
21518;DHT22;61765;45.794;24.150;2024-02-28T08:09:01;16.80;60.10
21518;DHT22;61765;45.794;24.150;2024-02-28T08:17:06;17.00;59.40
21518;DHT22;61765;45.794;24.150;2024-02-28T08:25:15;17.00;58.90
21518;DHT22;61765;45.794;24.150;2024-02-28T08:33:22;18.40;57.30
21518;DHT22;61765;45.794;24.150;2024-02-28T08:41:31;19.30;54.80
21518;DHT22;61765;45.794;24.150;2024-02-28T08:49:39;18.50;56.60
21518;DHT22;61765;45.794;24.150;2024-02-28T08:57:47;18.90;54.80
21518;DHT22;61765;45.794;24.150;2024-02-28T09:05:53;19.10;55.00
21518;DHT22;61765;45.794;24.150;2024-02-28T09:14:02;18.90;55.00
21518;DHT22;61765;45.794;24.150;2024-02-28T09:22:11;19.00;55.20
21518;DHT22;61765;45.794;24.150;2024-02-28T09:30:20;19.50;54.50
21518;DHT22;61765;45.794;24.150;2024-02-28T09:38:33;19.50;55.00
21518;DHT22;61765;45.794;24.150;2024-02-28T09:46:43;22.30;52.10
21518;DHT22;61765;45.794;24.150;2024-02-28T09:54:54;25.80;45.70
21518;DHT22;61765;45.794;24.150;2024-02-28T10:03:04;24.80;45.90
21518;DHT22;61765;45.794;24.150;2024-02-28T10:11:10;25.40;45.90
21518;DHT22;61765;45.794;24.150;2024-02-28T10:19:19;27.10;43.20
21518;DHT22;61765;45.794;24.150;2024-02-28T10:27:24;27.60;41.60
21518;DHT22;61765;45.794;24.150;2024-02-28T10:35:33;25.60;43.70
21518;DHT22;61765;45.794;24.150;2024-02-28T10:43:41;24.00;46.70
21518;DHT22;61765;45.794;24.150;2024-02-28T10:51:49;29.70;41.80
21518;DHT22;61765;45.794;24.150;2024-02-28T10:59:57;33.30;37.40
21518;DHT22;61765;45.794;24.150;2024-02-28T11:08:08;35.10;35.50
21518;DHT22;61765;45.794;24.150;2024-02-28T11:16:15;37.90;33.00
21518;DHT22;61765;45.794;24.150;2024-02-28T11:24:29;34.00;34.20
21518;DHT22;61765;45.794;24.150;2024-02-28T11:32:36;28.10;40.30
21518;DHT22;61765;45.794;24.150;2024-02-28T11:40:51;26.00;43.60
21518;DHT22;61765;45.794;24.150;2024-02-28T11:48:57;24.80;45.20
21518;DHT22;61765;45.794;24.150;2024-02-28T11:57:07;23.90;46.90
21518;DHT22;61765;45.794;24.150;2024-02-28T12:05:18;23.70;48.00
21518;DHT22;61765;45.794;24.150;2024-02-28T12:13:27;24.50;47.00
21518;DHT22;61765;45.794;24.150;2024-02-28T12:21:33;25.10;46.10
21518;DHT22;61765;45.794;24.150;2024-02-28T12:29:41;24.40;47.30
21518;DHT22;61765;45.794;24.150;2024-02-28T12:37:46;23.80;47.90
21518;DHT22;61765;45.794;24.150;2024-02-28T12:45:56;22.90;49.80
21518;DHT22;61765;45.794;24.150;2024-02-28T12:54:02;23.30;49.90
21518;DHT22;61765;45.794;24.150;2024-02-28T13:02:10;22.70;50.40
21518;DHT22;61765;45.794;24.150;2024-02-28T13:10:18;23.00;50.20
21518;DHT22;61765;45.794;24.150;2024-02-28T13:18:27;22.70;50.50
21518;DHT22;61765;45.794;24.150;2024-02-28T13:26:32;23.20;49.50
21518;DHT22;61765;45.794;24.150;2024-02-28T13:34:41;22.60;50.00
21518;DHT22;61765;45.794;24.150;2024-02-28T13:42:50;22.60;50.40
21518;DHT22;61765;45.794;24.150;2024-02-28T13:50:59;22.50;50.20
21518;DHT22;61765;45.794;24.150;2024-02-28T13:59:05;22.30;50.50
21518;DHT22;61765;45.794;24.150;2024-02-28T14:07:15;22.20;51.10
21518;DHT22;61765;45.794;24.150;2024-02-28T14:15:21;21.70;51.90
21518;DHT22;61765;45.794;24.150;2024-02-28T14:23:33;22.00;52.00
21518;DHT22;61765;45.794;24.150;2024-02-28T14:31:39;21.50;52.50
21518;DHT22;61765;45.794;24.150;2024-02-28T14:39:47;21.60;52.40
21518;DHT22;61765;45.794;24.150;2024-02-28T14:47:55;21.20;53.40
21518;DHT22;61765;45.794;24.150;2024-02-28T14:56:06;21.80;52.80
21518;DHT22;61765;45.794;24.150;2024-02-28T15:04:12;21.50;53.10
21518;DHT22;61765;45.794;24.150;2024-02-28T15:12:21;21.10;53.80
21518;DHT22;61765;45.794;24.150;2024-02-28T15:20:27;21.10;53.80
21518;DHT22;61765;45.794;24.150;2024-02-28T15:28:35;21.10;53.60
21518;DHT22;61765;45.794;24.150;2024-02-28T15:36:41;21.00;53.50
21518;DHT22;61765;45.794;24.150;2024-02-28T15:44:50;20.70;53.80
21518;DHT22;61765;45.794;24.150;2024-02-28T15:52:55;20.40;54.70
21518;DHT22;61765;45.794;24.150;2024-02-28T16:01:04;20.00;55.30
21518;DHT22;61765;45.794;24.150;2024-02-28T16:09:10;19.80;56.30
21518;DHT22;61765;45.794;24.150;2024-02-28T16:17:18;20.00;56.10
21518;DHT22;61765;45.794;24.150;2024-02-28T16:25:24;19.90;56.50
21518;DHT22;61765;45.794;24.150;2024-02-28T16:33:34;19.60;56.80
21518;DHT22;61765;45.794;24.150;2024-02-28T16:41:43;19.60;57.20
21518;DHT22;61765;45.794;24.150;2024-02-28T16:49:51;20.10;56.40
21518;DHT22;61765;45.794;24.150;2024-02-28T16:57:57;20.10;56.30
21518;DHT22;61765;45.794;24.150;2024-02-28T17:06:08;20.00;56.50
21518;DHT22;61765;45.794;24.150;2024-02-28T17:14:14;20.00;56.40
21518;DHT22;61765;45.794;24.150;2024-02-28T17:22:23;19.80;56.40
21518;DHT22;61765;45.794;24.150;2024-02-28T17:30:29;19.50;57.30
21518;DHT22;61765;45.794;24.150;2024-02-28T17:38:37;19.00;58.10
21518;DHT22;61765;45.794;24.150;2024-02-28T17:46:43;19.30;57.70
21518;DHT22;61765;45.794;24.150;2024-02-28T17:54:51;19.10;57.50
21518;DHT22;61765;45.794;24.150;2024-02-28T18:02:57;19.20;57.40
21518;DHT22;61765;45.794;24.150;2024-02-28T18:11:11;18.90;58.00
21518;DHT22;61765;45.794;24.150;2024-02-28T18:19:16;19.00;58.10
21518;DHT22;61765;45.794;24.150;2024-02-28T18:27:27;19.00;58.10
21518;DHT22;61765;45.794;24.150;2024-02-28T18:35:33;19.00;58.20
21518;DHT22;61765;45.794;24.150;2024-02-28T18:43:42;18.90;58.50
21518;DHT22;61765;45.794;24.150;2024-02-28T18:51:49;18.80;58.80
21518;DHT22;61765;45.794;24.150;2024-02-28T18:59:58;18.70;59.00
21518;DHT22;61765;45.794;24.150;2024-02-28T19:08:06;18.60;59.60
21518;DHT22;61765;45.794;24.150;2024-02-28T19:16:14;18.40;59.60
21518;DHT22;61765;45.794;24.150;2024-02-28T19:24:21;18.20;60.00
21518;DHT22;61765;45.794;24.150;2024-02-28T19:32:30;18.20;60.10
21518;DHT22;61765;45.794;24.150;2024-02-28T19:40:35;18.10;61.30
21518;DHT22;61765;45.794;24.150;2024-02-28T19:48:44;18.20;60.10
21518;DHT22;61765;45.794;24.150;2024-02-28T19:56:50;18.10;60.60
21518;DHT22;61765;45.794;24.150;2024-02-28T20:04:59;18.00;60.80
21518;DHT22;61765;45.794;24.150;2024-02-28T20:13:04;18.00;61.10
21518;DHT22;61765;45.794;24.150;2024-02-28T20:21:13;17.50;61.10
21518;DHT22;61765;45.794;24.150;2024-02-28T20:29:29;17.80;61.50
21518;DHT22;61765;45.794;24.150;2024-02-28T20:37:38;17.80;61.10
21518;DHT22;61765;45.794;24.150;2024-02-28T20:45:44;17.90;60.60
21518;DHT22;61765;45.794;24.150;2024-02-28T20:53:52;17.20;59.60
21518;DHT22;61765;45.794;24.150;2024-02-28T21:01:58;17.50;59.60
21518;DHT22;61765;45.794;24.150;2024-02-28T21:10:07;17.80;59.40
21518;DHT22;61765;45.794;24.150;2024-02-28T21:18:13;18.00;59.30
21518;DHT22;61765;45.794;24.150;2024-02-28T21:26:22;17.90;59.30
21518;DHT22;61765;45.794;24.150;2024-02-28T21:34:28;17.80;59.60
21518;DHT22;61765;45.794;24.150;2024-02-28T21:42:36;17.80;59.80
21518;DHT22;61765;45.794;24.150;2024-02-28T23:18:46;16.50;62.30
21518;DHT22;61765;45.794;24.150;2024-02-28T23:26:52;16.30;63.50
21518;DHT22;61765;45.794;24.150;2024-02-28T23:35:00;16.40;64.00
21518;DHT22;61765;45.794;24.150;2024-02-28T23:43:06;16.10;64.50
21518;DHT22;61765;45.794;24.150;2024-02-28T23:51:14;15.90;65.00
21518;DHT22;61765;45.794;24.150;2024-02-28T23:59:20;16.10;65.30
